Time;durP1;ratioP1;P1;durP2;ratioP2;P2;SDS_P1;SDS_P2;PMS_P1;PMS_P2;Temp;Humidity;BMP_temperature;BMP_pressure;BME280_temperature;BME280_humidity;BME280_pressure;Samples;Min_cycle;Max_cycle;Signal;HPM_P1;HPM_P2
2023/06/27 00:01:39;;;;;;;10.82;3.53;;;;;;;15.08;82.59;101944.84;4974091;28;20041;-82
2023/06/27 00:04:05;;;;;;;8.10;3.22;;;;;;;15.26;82.53;101980.09;4974084;28;20026;-81
2023/06/27 00:06:31;;;;;;;8.55;3.65;;;;;;;15.06;83.20;101947.53;4973864;28;20077;-82
2023/06/27 00:08:56;;;;;;;8.70;3.30;;;;;;;15.25;83.40;101982.78;4974161;28;20034;-81
2023/06/27 00:11:21;;;;;;;8.82;3.35;;;;;;;14.83;83.29;101912.56;4974339;28;20023;-82
2023/06/27 00:13:48;;;;;;;9.77;3.85;;;;;;;15.10;83.71;101959.41;4973996;28;20480;-82
2023/06/27 00:16:14;;;;;;;10.98;4.05;;;;;;;15.30;84.10;101996.34;4973878;28;20023;-81
2023/06/27 00:18:47;;;;;;;7.90;3.85;;;;;;;15.27;83.72;101992.16;4973948;28;20034;-82
2023/06/27 00:21:14;;;;;;;9.75;4.10;;;;;;;15.28;83.89;101993.00;4973887;28;20031;-82
2023/06/27 00:23:39;;;;;;;12.95;4.22;;;;;;;15.16;83.81;101973.81;4956587;28;20362;-81
2023/06/27 00:26:06;;;;;;;7.90;3.13;;;;;;;15.28;84.20;101988.63;4973944;28;20034;-81
2023/06/27 00:28:32;;;;;;;10.48;3.58;;;;;;;14.86;84.35;101925.41;4973836;28;20086;-81
2023/06/27 00:30:57;;;;;;;9.43;4.07;;;;;;;14.96;84.04;101941.25;4973629;28;20022;-82
2023/06/27 00:33:23;;;;;;;9.43;3.75;;;;;;;15.24;83.87;101974.16;4973607;28;20061;-82
2023/06/27 00:35:48;;;;;;;10.65;3.80;;;;;;;15.19;84.44;101974.44;4973988;28;20046;-81
2023/06/27 00:38:13;;;;;;;10.63;3.65;;;;;;;15.26;84.61;101993.09;4973932;28;20037;-82
2023/06/27 00:40:39;;;;;;;9.65;3.90;;;;;;;15.15;84.97;101965.16;4973901;28;20027;-82
2023/06/27 00:43:04;;;;;;;11.40;3.92;;;;;;;15.21;84.30;101967.38;4973833;28;20101;-82
2023/06/27 00:45:29;;;;;;;9.80;3.67;;;;;;;15.32;84.17;101984.06;4973565;28;20030;-82
2023/06/27 00:47:56;;;;;;;10.23;4.35;;;;;;;15.23;84.27;101975.06;4973638;28;20030;-82
2023/06/27 00:50:24;;;;;;;10.75;3.80;;;;;;;15.06;84.90;101954.50;4956677;28;20509;-82
2023/06/27 00:52:51;;;;;;;9.68;4.10;;;;;;;15.10;85.09;101963.78;4973792;28;20031;-82
2023/06/27 00:55:17;;;;;;;9.43;4.15;;;;;;;14.98;85.36;101962.81;4973880;28;20042;-82
2023/06/27 00:57:44;;;;;;;13.43;4.60;;;;;;;14.95;85.35;101954.38;4973678;28;20031;-81
2023/06/27 01:00:11;;;;;;;11.13;4.18;;;;;;;15.10;85.58;101974.19;4976227;28;20022;-81
2023/06/27 01:02:36;;;;;;;10.98;4.22;;;;;;;15.13;85.42;101977.41;4977328;28;20062;-82
2023/06/27 01:05:02;;;;;;;9.98;4.10;;;;;;;15.17;85.80;102004.09;4977301;28;20058;-81
2023/06/27 01:07:40;;;;;;;11.88;4.03;;;;;;;14.89;85.33;101955.56;4977429;28;20027;-82
2023/06/27 01:10:12;;;;;;;11.85;3.88;;;;;;;15.04;86.57;101985.81;4977415;28;20026;-81
2023/06/27 01:12:47;;;;;;;9.77;3.95;;;;;;;15.12;86.34;101995.72;4977203;28;20023;-81
2023/06/27 01:15:12;;;;;;;10.40;3.95;;;;;;;15.07;86.47;101990.84;4977244;28;20449;-81
2023/06/27 01:17:39;;;;;;;10.40;4.28;;;;;;;15.13;86.87;101990.44;4976868;28;20097;-83
2023/06/27 01:20:06;;;;;;;11.10;4.43;;;;;;;15.08;86.82;101986.47;4977084;28;20019;-81
2023/06/27 01:22:44;;;;;;;10.32;4.63;;;;;;;15.02;86.27;101966.88;4976598;28;20022;-81
2023/06/27 01:25:11;;;;;;;10.35;4.47;;;;;;;15.07;86.66;101974.41;4976980;28;20033;-81
2023/06/27 01:27:37;;;;;;;9.88;4.00;;;;;;;15.00;87.02;101967.91;4977109;28;20041;-81
2023/06/27 01:30:03;;;;;;;12.18;4.40;;;;;;;15.13;86.64;101992.19;4976666;28;20030;-81
2023/06/27 01:32:42;;;;;;;12.55;4.50;;;;;;;15.01;86.54;101985.19;4976561;28;20404;-83
2023/06/27 01:35:25;;;;;;;13.57;4.47;;;;;;;15.02;87.02;101995.47;4976728;28;20472;-83
2023/06/27 01:37:56;;;;;;;12.80;4.80;;;;;;;14.78;87.41;101965.81;4977077;28;20031;-81
2023/06/27 01:40:23;;;;;;;14.88;4.13;;;;;;;14.98;87.44;101993.19;4976898;28;20026;-82
2023/06/27 01:43:06;;;;;;;12.60;4.70;;;;;;;14.92;87.87;102000.44;4976811;28;20030;-81
2023/06/27 01:45:32;;;;;;;10.32;4.53;;;;;;;14.97;87.94;101992.34;4976878;28;20031;-82
2023/06/27 01:47:58;;;;;;;8.88;4.45;;;;;;;14.79;87.83;101954.50;4976649;28;20031;-82
2023/06/27 01:50:24;;;;;;;11.15;4.22;;;;;;;14.93;87.52;101976.09;4976898;28;20033;-82
2023/06/27 01:52:49;;;;;;;16.40;5.30;;;;;;;14.72;87.55;101937.59;4976475;28;20373;-81
2023/06/27 01:55:14;;;;;;;10.68;4.53;;;;;;;15.04;87.76;101984.97;4976377;28;20113;-82
2023/06/27 01:57:40;;;;;;;12.38;4.85;;;;;;;14.81;87.76;101945.66;4976154;28;20106;-81
2023/06/27 02:00:07;;;;;;;11.55;4.60;;;;;;;15.07;88.19;101987.41;4976692;28;20045;-81
2023/06/27 02:02:33;;;;;;;12.68;4.70;;;;;;;15.05;88.01;101990.09;4976359;28;20038;-81
2023/06/27 02:04:58;;;;;;;11.55;4.47;;;;;;;15.03;88.21;101983.31;4976416;28;20065;-82
2023/06/27 02:07:23;;;;;;;10.07;5.05;;;;;;;15.02;88.03;101982.47;4976535;28;20041;-82
2023/06/27 02:09:49;;;;;;;11.32;5.07;;;;;;;14.97;88.10;101968.09;4976257;28;20073;-81
2023/06/27 02:12:15;;;;;;;14.70;4.63;;;;;;;15.06;88.55;101981.38;4976187;28;20059;-81
2023/06/27 02:14:40;;;;;;;11.05;4.88;;;;;;;14.79;88.07;101931.09;4976401;28;20034;-81
2023/06/27 02:17:08;;;;;;;12.63;4.60;;;;;;;14.90;88.59;101954.66;4976043;28;20608;-82
2023/06/27 02:19:33;;;;;;;14.02;4.57;;;;;;;14.68;88.84;101921.38;4976055;28;20037;-81
2023/06/27 02:21:58;;;;;;;12.57;4.72;;;;;;;14.48;88.56;101888.81;4976013;28;20106;-81
2023/06/27 02:24:24;;;;;;;13.07;5.18;;;;;;;14.99;88.80;101974.88;4976166;28;20463;-81
2023/06/27 02:26:49;;;;;;;10.52;4.80;;;;;;;14.94;89.25;101969.13;4975681;28;20110;-81
2023/06/27 02:29:15;;;;;;;10.45;4.10;;;;;;;14.85;89.67;101952.34;4975812;28;20111;-81
2023/06/27 02:31:40;;;;;;;12.77;4.70;;;;;;;14.90;89.46;101975.44;4975587;28;20492;-82
2023/06/27 02:34:05;;;;;;;12.85;4.53;;;;;;;14.92;89.41;101968.38;4975663;28;20053;-81
2023/06/27 02:36:31;;;;;;;10.63;4.80;;;;;;;14.93;89.60;101968.28;4975960;28;20113;-82
2023/06/27 02:38:59;;;;;;;12.48;5.32;;;;;;;14.92;89.64;101964.00;4975807;28;20085;-82
2023/06/27 02:41:24;;;;;;;12.73;4.80;;;;;;;14.63;89.68;101924.22;4975512;28;20034;-82
2023/06/27 02:43:50;;;;;;;12.55;4.70;;;;;;;14.70;90.36;101942.06;4975502;28;20362;-81
2023/06/27 02:46:16;;;;;;;13.75;4.65;;;;;;;14.40;90.64;101904.00;4975580;28;20030;-82
2023/06/27 02:48:41;;;;;;;10.25;4.95;;;;;;;14.67;90.81;101958.69;4975543;28;20027;-82
2023/06/27 02:51:06;;;;;;;11.02;4.63;;;;;;;14.75;90.89;101971.19;4975377;28;20110;-81
2023/06/27 02:53:32;;;;;;;12.88;5.03;;;;;;;14.74;91.51;101972.97;4975326;28;20111;-81
2023/06/27 02:56:01;;;;;;;10.75;4.40;;;;;;;14.40;92.11;101916.19;4975437;28;20029;-81
2023/06/27 02:58:27;;;;;;;13.57;4.53;;;;;;;14.68;91.55;101968.16;4975280;28;20023;-82
2023/06/27 03:00:52;;;;;;;9.48;4.60;;;;;;;14.45;91.46;101930.56;4957425;28;20117;-82
2023/06/27 03:03:17;;;;;;;14.77;4.90;;;;;;;14.26;91.89;101904.03;4958218;28;20117;-82
2023/06/27 03:05:43;;;;;;;15.77;5.05;;;;;;;14.35;92.09;101926.84;4975228;28;20045;-82
2023/06/27 03:08:08;;;;;;;10.75;4.40;;;;;;;14.63;91.97;101976.22;4975290;28;20054;-82
2023/06/27 03:10:33;;;;;;;14.63;4.93;;;;;;;14.63;92.38;101972.78;4957593;28;20039;-81
2023/06/27 03:12:59;;;;;;;11.98;5.03;;;;;;;14.65;92.55;101970.97;4974986;28;20044;-81
2023/06/27 03:15:27;;;;;;;12.27;4.68;;;;;;;14.59;92.61;101968.72;4975289;28;20473;-81
2023/06/27 03:17:52;;;;;;;12.05;4.70;;;;;;;14.39;93.29;101951.72;4974951;28;20392;-82
2023/06/27 03:20:17;;;;;;;11.57;4.60;;;;;;;14.33;93.34;101957.28;4975068;28;20019;-82
2023/06/27 03:22:43;;;;;;;11.75;4.72;;;;;;;14.51;93.30;101981.34;4974362;28;20532;-82
2023/06/27 03:25:10;;;;;;;16.50;4.85;;;;;;;14.48;93.49;101976.34;4974866;28;20528;-82
2023/06/27 03:27:35;;;;;;;10.30;4.50;;;;;;;14.24;93.70;101942.25;4974892;28;20483;-82
2023/06/27 03:30:01;;;;;;;10.13;4.50;;;;;;;14.32;93.97;101953.03;4981077;23;20057;-82
2023/06/27 03:32:26;;;;;;;12.55;4.85;;;;;;;14.29;93.80;101953.22;4974822;28;20045;-82
2023/06/27 03:34:52;;;;;;;9.95;4.80;;;;;;;14.49;94.43;101976.25;4974692;28;20098;-82
2023/06/27 03:37:19;;;;;;;13.32;4.93;;;;;;;14.49;94.19;101971.06;4974586;28;20027;-82
2023/06/27 03:39:45;;;;;;;12.40;4.82;;;;;;;14.55;93.86;101982.81;4974626;28;20027;-82
2023/06/27 03:42:10;;;;;;;12.18;5.00;;;;;;;14.46;93.94;101967.81;4974586;28;20094;-81
2023/06/27 03:44:36;;;;;;;13.45;5.15;;;;;;;14.58;94.05;101977.47;4974396;28;20027;-82
2023/06/27 03:47:01;;;;;;;15.60;5.55;;;;;;;14.56;94.10;101980.16;4956732;28;20031;-81
2023/06/27 03:49:27;;;;;;;11.77;4.88;;;;;;;14.47;94.48;101959.94;4974462;28;20050;-82
2023/06/27 03:51:52;;;;;;;11.02;4.28;;;;;;;14.32;93.98;101937.44;4956895;28;20030;-82
2023/06/27 03:54:17;;;;;;;10.45;4.60;;;;;;;14.60;94.35;101989.44;4974182;28;20038;-83
2023/06/27 03:56:43;;;;;;;13.73;4.78;;;;;;;14.50;94.20;101980.53;4974336;28;20030;-84
2023/06/27 03:59:08;;;;;;;10.95;4.72;;;;;;;14.54;93.78;101984.59;4974097;28;20041;-84
2023/06/27 04:01:34;;;;;;;13.65;5.05;;;;;;;14.51;94.59;101978.75;4956668;28;20134;-84
2023/06/27 04:04:00;;;;;;;13.25;5.22;;;;;;;14.32;94.47;101940.84;4956573;28;20378;-84
2023/06/27 04:06:25;;;;;;;17.25;5.22;;;;;;;14.43;94.45;101955.78;4974146;28;20034;-83
2023/06/27 04:08:50;;;;;;;14.45;5.18;;;;;;;13.83;94.60;101856.44;4974122;28;20030;-83
2023/06/27 04:11:16;;;;;;;11.55;4.70;;;;;;;14.59;94.88;101979.97;4974119;28;20077;-83
2023/06/27 04:13:41;;;;;;;12.90;5.25;;;;;;;14.61;94.62;101983.28;4956591;28;20061;-86
2023/06/27 04:16:06;;;;;;;13.40;4.78;;;;;;;14.41;94.41;101947.25;4973874;28;20440;-82
2023/06/27 04:18:32;;;;;;;10.02;4.60;;;;;;;14.62;94.87;101982.34;4973636;28;20155;-83
2023/06/27 04:20:58;;;;;;;11.07;4.90;;;;;;;13.75;95.34;101854.31;4974049;28;20028;-83
2023/06/27 04:23:23;;;;;;;12.25;4.45;;;;;;;14.81;96.72;101982.06;4974126;28;20052;-83
2023/06/27 04:26:03;;;;;;;19.02;5.28;;;;;;;15.00;94.52;101980.91;4973822;28;20037;-83
2023/06/27 04:28:30;;;;;;;13.95;4.90;;;;;;;15.09;94.38;101957.75;4973713;28;20413;-83
2023/06/27 04:30:55;;;;;;;10.82;3.80;;;;;;;15.44;93.52;101980.69;4973829;28;20038;-81
2023/06/27 04:33:22;;;;;;;10.75;4.43;;;;;;;15.56;93.33;101979.88;4973020;28;20026;-85
2023/06/27 04:35:47;;;;;;;12.77;5.13;;;;;;;15.53;90.90;101984.41;4973897;28;20046;-85
2023/06/27 04:38:14;;;;;;;11.00;4.80;;;;;;;15.51;91.81;101984.53;4973809;28;20109;-84
2023/06/27 04:40:41;;;;;;;14.02;4.60;;;;;;;15.23;92.37;101943.84;4974123;28;20018;-85
2023/06/27 04:43:10;;;;;;;10.43;4.40;;;;;;;14.24;92.25;101769.00;4958862;23;20524;-85
2023/06/27 04:46:42;;;;;;;12.68;5.25;;;;;;;15.58;91.42;101992.78;4954363;28;20405;-86
2023/06/27 04:49:07;;;;;;;11.48;4.55;;;;;;;14.54;91.82;101796.59;4953129;29;20075;-84
2023/06/27 04:51:33;;;;;;;11.80;4.38;;;;;;;15.78;92.16;101987.97;4954584;28;20027;-84
2023/06/27 04:53:58;;;;;;;10.73;5.13;;;;;;;15.41;91.18;101944.41;4954253;28;20202;-83
2023/06/27 04:56:24;;;;;;;10.90;4.70;;;;;;;15.35;90.91;101918.81;4954398;28;20114;-85
2023/06/27 04:58:49;;;;;;;10.77;4.82;;;;;;;15.47;90.54;101957.88;4936940;29;20039;-84
2023/06/27 05:01:14;;;;;;;13.25;4.35;;;;;;;15.62;90.99;101981.25;4954566;28;20358;-83
2023/06/27 05:03:41;;;;;;;12.40;5.22;;;;;;;15.72;90.31;101996.16;4954594;28;20110;-84
2023/06/27 05:06:07;;;;;;;14.18;5.07;;;;;;;15.78;90.26;101990.56;4954183;28;20081;-82
2023/06/27 05:08:34;;;;;;;13.23;5.15;;;;;;;15.71;90.13;101950.22;4953947;28;20102;-80
2023/06/27 05:11:00;;;;;;;11.45;5.35;;;;;;;16.01;89.48;101999.44;4934091;29;20038;-83
2023/06/27 05:13:25;;;;;;;11.63;5.55;;;;;;;15.95;88.56;101991.22;4935051;29;20466;-81
2023/06/27 05:15:53;;;;;;;10.27;5.22;;;;;;;16.14;88.04;101996.03;4935231;29;20055;-79
2023/06/27 05:18:18;;;;;;;13.00;5.65;;;;;;;16.31;87.55;102006.13;4934752;29;20525;-80
2023/06/27 05:20:45;;;;;;;14.02;5.18;;;;;;;16.58;86.40;102004.22;4934639;29;20151;-80
2023/06/27 05:23:11;;;;;;;13.57;5.90;;;;;;;16.76;84.97;102007.34;4934527;29;20035;-81
2023/06/27 05:25:37;;;;;;;11.60;5.07;;;;;;;16.93;83.19;101959.22;4934940;29;20028;-81
2023/06/27 05:28:03;;;;;;;14.60;5.20;;;;;;;17.49;81.05;101955.03;4934979;29;20023;-83
2023/06/27 05:30:29;;;;;;;13.15;5.65;;;;;;;18.48;77.10;101996.31;4934979;29;20031;-82
2023/06/27 05:32:55;;;;;;;13.07;5.07;;;;;;;19.32;74.32;101999.31;4934849;29;20020;-82
2023/06/27 05:35:21;;;;;;;12.30;5.18;;;;;;;19.62;71.07;101930.47;4961200;23;20915;-82
2023/06/27 05:37:47;;;;;;;12.73;5.07;;;;;;;21.19;66.37;101999.00;4955987;28;20038;-82
2023/06/27 05:40:12;;;;;;;13.45;5.45;;;;;;;22.03;62.33;101995.78;4972990;28;20465;-82
2023/06/27 05:42:39;;;;;;;10.15;4.50;;;;;;;22.46;60.02;101999.66;4973217;28;20136;-82
2023/06/27 05:45:05;;;;;;;13.93;4.78;;;;;;;22.98;58.26;101992.03;4974037;28;20165;-82
2023/06/27 05:47:30;;;;;;;13.57;4.68;;;;;;;23.59;57.41;101994.75;4976782;28;20030;-83
2023/06/27 05:49:56;;;;;;;11.65;4.70;;;;;;;24.22;53.73;101980.47;4976080;28;20046;-81
2023/06/27 05:52:22;;;;;;;14.05;5.15;;;;;;;24.62;52.69;101989.56;4957718;28;20370;-81
2023/06/27 05:54:48;;;;;;;12.63;4.60;;;;;;;24.81;51.68;101966.34;4957024;29;20042;-83
2023/06/27 05:57:13;;;;;;;15.35;5.10;;;;;;;25.07;50.57;101960.97;4957207;29;20025;-82
2023/06/27 05:59:39;;;;;;;12.48;4.93;;;;;;;25.63;49.28;101998.13;4957115;29;20028;-81
2023/06/27 06:02:04;;;;;;;13.20;4.90;;;;;;;25.86;48.54;101998.28;4957171;29;20382;-79
2023/06/27 06:04:32;;;;;;;11.18;4.47;;;;;;;26.46;47.61;101988.03;4957209;29;20042;-81
2023/06/27 06:07:03;;;;;;;9.68;3.80;;;;;;;26.91;46.35;101993.56;4957208;29;20030;-82
2023/06/27 06:09:32;;;;;;;14.05;4.85;;;;;;;26.85;46.62;101977.38;4939539;29;20043;-82
2023/06/27 06:12:00;;;;;;;11.07;3.67;;;;;;;27.15;45.92;101990.81;4956758;28;20114;-83
2023/06/27 06:14:25;;;;;;;12.98;4.47;;;;;;;27.36;43.99;101967.09;4975599;28;20073;-84
2023/06/27 06:16:56;;;;;;;10.27;3.53;;;;;;;27.55;43.97;101935.75;4958874;28;20417;-84
2023/06/27 06:19:21;;;;;;;10.38;4.22;;;;;;;28.20;43.18;101985.47;4976252;28;20031;-81
2023/06/27 06:21:46;;;;;;;12.00;4.30;;;;;;;28.43;42.03;101993.38;4975920;28;20026;-82
2023/06/27 06:24:14;;;;;;;10.55;4.32;;;;;;;28.15;42.65;101959.47;4975728;28;20098;-83
2023/06/27 06:26:39;;;;;;;8.82;3.80;;;;;;;28.46;41.29;101937.19;4948955;23;20085;-83
2023/06/27 06:29:16;;;;;;;11.02;4.35;;;;;;;28.86;42.82;101946.38;4937530;29;20027;-82
2023/06/27 06:31:53;;;;;;;10.98;3.83;;;;;;;28.34;41.62;101821.78;4937480;29;20038;-83
2023/06/27 06:34:42;;;;;;;11.55;3.92;;;;;;;29.55;41.47;102001.69;4937286;29;20046;-83
2023/06/27 06:37:07;;;;;;;10.00;4.05;;;;;;;29.22;39.79;101982.75;5042642;23;20060;-84
2023/06/27 06:39:33;;;;;;;9.88;4.32;;;;;;;29.21;39.85;101965.16;4975820;28;20138;-83
2023/06/27 06:41:58;;;;;;;9.88;4.20;;;;;;;29.82;39.77;102005.34;4975831;28;20027;-82
2023/06/27 06:44:24;;;;;;;9.80;4.00;;;;;;;29.38;38.22;101916.75;4975744;28;20031;-84
2023/06/27 06:46:50;;;;;;;10.70;3.38;;;;;;;29.95;37.14;101968.13;4975588;28;20049;-84
2023/06/27 06:49:15;;;;;;;9.30;3.80;;;;;;;30.18;37.25;102021.16;4976180;28;20027;-85
2023/06/27 06:51:40;;;;;;;9.38;3.45;;;;;;;29.85;37.23;102002.28;4975392;28;20400;-83
2023/06/27 06:54:06;;;;;;;8.35;3.70;;;;;;;29.55;38.99;102020.31;4975144;28;20026;-85
2023/06/27 06:56:31;;;;;;;9.55;3.60;;;;;;;29.88;37.40;102016.03;4957373;28;20074;-80
2023/06/27 06:58:57;;;;;;;9.43;3.15;;;;;;;30.18;37.29;102015.81;4975136;28;20031;-80
2023/06/27 07:01:23;;;;;;;9.18;3.38;;;;;;;30.02;36.53;102006.28;4975158;28;20039;-80
2023/06/27 07:03:48;;;;;;;6.82;3.17;;;;;;;30.29;36.74;102015.28;4975413;28;20034;-80
2023/06/27 07:06:14;;;;;;;8.65;3.53;;;;;;;29.77;36.73;101999.78;4975085;28;20034;-84
2023/06/27 07:08:39;;;;;;;10.48;3.42;;;;;;;29.22;37.15;101972.13;4975065;28;20031;-80
2023/06/27 07:11:04;;;;;;;10.23;3.47;;;;;;;29.60;37.77;102005.41;4975167;28;20026;-81
2023/06/27 07:13:30;;;;;;;8.38;2.83;;;;;;;30.33;35.59;102013.03;4975240;28;20041;-81
2023/06/27 07:15:58;;;;;;;9.25;2.72;;;;;;;30.60;34.35;101974.78;4975173;28;20031;-80
2023/06/27 07:18:23;;;;;;;10.75;2.78;;;;;;;31.26;33.22;102022.94;4975262;28;20404;-80
2023/06/27 07:20:49;;;;;;;8.32;2.60;;;;;;;31.26;33.03;102006.94;4974816;28;20037;-82
2023/06/27 07:23:15;;;;;;;8.25;2.40;;;;;;;30.06;35.41;102014.69;4974872;28;20045;-81
2023/06/27 07:25:41;;;;;;;6.93;2.20;;;;;;;27.90;37.63;102016.50;4975106;28;20054;-80
2023/06/27 07:28:08;;;;;;;9.73;2.08;;;;;;;26.38;41.38;102021.69;4974922;28;20034;-80
2023/06/27 07:30:33;;;;;;;7.80;2.22;;;;;;;25.22;42.86;102023.75;4974700;28;20023;-80
2023/06/27 07:32:58;;;;;;;7.80;2.13;;;;;;;24.31;44.51;102003.31;4958370;28;20033;-81
2023/06/27 07:35:24;;;;;;;8.93;2.10;;;;;;;23.78;46.89;101969.16;4956006;29;20023;-83
2023/06/27 07:37:49;;;;;;;7.72;2.15;;;;;;;24.64;45.77;102006.06;4954985;29;20044;-78
2023/06/27 07:40:14;;;;;;;6.05;1.95;;;;;;;24.94;44.53;102015.25;4955499;29;20031;-79
2023/06/27 07:42:40;;;;;;;6.55;2.08;;;;;;;24.67;44.41;102005.75;4955391;29;20057;-80
2023/06/27 07:45:06;;;;;;;8.20;2.38;;;;;;;24.60;45.25;102016.97;4955391;29;20082;-80
2023/06/27 07:47:31;;;;;;;8.63;1.95;;;;;;;24.51;45.25;102014.47;4955238;29;20103;-78
2023/06/27 07:49:57;;;;;;;8.18;2.13;;;;;;;24.46;45.99;102009.63;4954992;29;20118;-79
2023/06/27 07:52:22;;;;;;;6.63;2.00;;;;;;;24.28;46.32;101982.47;4954745;29;20101;-76
2023/06/27 07:54:48;;;;;;;9.57;2.25;;;;;;;24.52;46.67;101995.81;4954746;29;20035;-81
2023/06/27 07:57:13;;;;;;;6.00;2.03;;;;;;;24.35;45.32;101967.69;4955209;29;20390;-79
2023/06/27 07:59:38;;;;;;;6.07;1.80;;;;;;;24.14;47.02;101973.34;4955139;29;20023;-79
2023/06/27 08:02:04;;;;;;;10.50;2.50;;;;;;;24.20;46.53;102007.03;4937670;29;20039;-80
2023/06/27 08:04:29;;;;;;;6.85;2.03;;;;;;;24.30;46.87;102010.38;4954776;29;20038;-81
2023/06/27 08:06:55;;;;;;;8.50;2.40;;;;;;;24.28;45.97;101998.28;4954796;29;20034;-79
2023/06/27 08:09:20;;;;;;;6.63;1.88;;;;;;;24.47;44.52;101999.91;4954700;28;20046;-78
2023/06/27 08:11:46;;;;;;;5.40;1.88;;;;;;;24.58;44.78;101994.31;4954846;29;20549;-81
2023/06/27 08:14:11;;;;;;;6.25;2.00;;;;;;;24.13;44.39;101963.75;4954714;29;20544;-79
2023/06/27 08:16:36;;;;;;;4.90;1.63;;;;;;;24.40;44.89;102001.53;4954888;29;20053;-79
2023/06/27 08:19:02;;;;;;;7.40;1.90;;;;;;;24.40;44.72;101999.72;4954713;29;20031;-78
2023/06/27 08:21:28;;;;;;;4.47;1.67;;;;;;;24.15;46.76;101988.19;4954801;29;20035;-80
2023/06/27 08:23:54;;;;;;;6.55;1.90;;;;;;;23.91;47.71;101990.69;4954521;29;20027;-79
2023/06/27 08:26:19;;;;;;;7.13;1.80;;;;;;;23.69;48.10;101990.19;4953362;29;20062;-79
2023/06/27 08:28:45;;;;;;;5.43;1.90;;;;;;;23.67;46.82;101976.34;4953969;29;20449;-79
2023/06/27 08:31:11;;;;;;;7.88;1.88;;;;;;;23.90;49.30;102008.34;4959179;28;20110;-80
2023/06/27 08:33:37;;;;;;;7.18;1.80;;;;;;;23.68;47.38;101983.28;4973747;28;20085;-77
2023/06/27 08:36:02;;;;;;;6.53;1.90;;;;;;;23.51;49.09;101999.94;4973125;28;20027;-79
2023/06/27 08:38:28;;;;;;;6.90;2.20;;;;;;;22.89;48.11;101980.56;4955975;28;20034;-79
2023/06/27 08:40:55;;;;;;;6.00;1.90;;;;;;;22.59;51.43;102002.75;4973237;28;20031;-79
2023/06/27 08:43:20;;;;;;;8.93;2.30;;;;;;;22.22;52.57;101993.13;4955880;28;20053;-79
2023/06/27 08:45:48;;;;;;;8.57;1.95;;;;;;;22.13;52.91;102003.66;4955264;28;20035;-81
2023/06/27 08:48:14;;;;;;;5.78;1.80;;;;;;;22.08;52.94;101995.38;4973596;28;20031;-79
2023/06/27 08:50:42;;;;;;;8.50;2.13;;;;;;;22.14;52.66;101973.75;4973074;28;20109;-78
2023/06/27 08:53:10;;;;;;;5.55;2.00;;;;;;;22.45;53.97;102009.34;4971045;28;20038;-78
2023/06/27 08:55:47;;;;;;;6.90;1.80;;;;;;;22.40;49.74;101977.34;4972884;28;20031;-80
2023/06/27 08:58:15;;;;;;;5.97;1.60;;;;;;;22.74;48.10;101997.84;4973410;28;20125;-79
2023/06/27 09:00:42;;;;;;;7.65;2.10;;;;;;;22.92;48.88;101996.09;4973302;28;20488;-81
2023/06/27 09:03:08;;;;;;;5.85;1.70;;;;;;;23.08;48.72;101992.78;4936536;29;20441;-80
2023/06/27 09:05:34;;;;;;;6.43;2.05;;;;;;;22.99;48.68;101968.16;4954640;29;20464;-82
2023/06/27 09:07:59;;;;;;;5.07;1.60;;;;;;;23.06;47.56;101987.69;4953517;28;20396;-80
2023/06/27 09:10:25;;;;;;;10.55;1.90;;;;;;;23.06;47.82;101982.41;4954338;29;20038;-78
2023/06/27 09:12:52;;;;;;;6.47;1.80;;;;;;;23.47;48.68;101988.03;4954215;29;20368;-78
2023/06/27 09:15:18;;;;;;;7.85;2.00;;;;;;;23.35;46.16;101947.91;4954085;28;20117;-80
2023/06/27 09:17:43;;;;;;;8.35;2.15;;;;;;;23.62;45.55;101997.09;4954189;29;20058;-80
2023/06/27 09:20:09;;;;;;;6.05;1.90;;;;;;;23.50;46.06;101989.53;4955188;28;20023;-82
2023/06/27 09:22:37;;;;;;;3.85;1.25;;;;;;;23.54;46.69;101989.09;4957807;29;20031;-81
2023/06/27 09:25:14;;;;;;;5.75;1.50;;;;;;;23.77;45.32;101972.78;4957442;29;20038;-78
2023/06/27 09:27:40;;;;;;;4.88;1.30;;;;;;;24.01;41.59;101994.88;4957553;29;20031;-80
2023/06/27 09:30:10;;;;;;;4.13;1.05;;;;;;;23.94;41.26;101985.09;4957862;29;20049;-79
2023/06/27 09:32:53;;;;;;;6.55;1.55;;;;;;;23.96;41.30;102001.59;4957970;29;20409;-79
2023/06/27 09:35:20;;;;;;;7.00;1.42;;;;;;;24.24;42.09;101997.78;4957401;29;20556;-78
2023/06/27 09:37:45;;;;;;;4.25;1.20;;;;;;;24.19;42.11;101991.34;4957381;29;20512;-80
2023/06/27 09:40:24;;;;;;;5.22;1.40;;;;;;;23.92;42.31;101971.25;4957365;29;20031;-79
2023/06/27 09:42:50;;;;;;;5.43;1.20;;;;;;;23.89;40.82;102003.19;4957340;29;20503;-79
2023/06/27 09:45:16;;;;;;;3.15;0.90;;;;;;;23.82;41.56;102010.09;4957404;29;20390;-79
2023/06/27 09:47:42;;;;;;;5.47;1.30;;;;;;;23.80;41.90;102017.34;4957538;29;20031;-79
2023/06/27 09:50:07;;;;;;;3.50;1.00;;;;;;;23.82;42.10;102002.19;4957484;29;20028;-79
2023/06/27 09:52:33;;;;;;;2.83;1.00;;;;;;;23.87;42.14;101992.78;4957269;28;20481;-79
2023/06/27 09:54:59;;;;;;;5.95;1.40;;;;;;;23.96;42.15;102012.97;4957153;29;20035;-81
2023/06/27 09:57:25;;;;;;;3.65;1.08;;;;;;;23.96;43.47;102017.44;4956922;29;20050;-79
2023/06/27 09:59:57;;;;;;;5.55;1.38;;;;;;;23.80;42.91;101977.78;4957247;29;20050;-79
2023/06/27 10:02:27;;;;;;;3.92;1.00;;;;;;;23.89;43.52;101985.59;4957047;29;20031;-78
2023/06/27 10:04:53;;;;;;;4.10;1.30;;;;;;;24.05;41.39;102008.56;4956886;29;20106;-80
2023/06/27 10:07:19;;;;;;;6.93;1.42;;;;;;;23.71;40.96;101988.25;4956760;29;20110;-78
2023/06/27 10:09:45;;;;;;;8.20;1.80;;;;;;;23.90;41.33;102008.34;4956669;29;20118;-77
2023/06/27 10:12:10;;;;;;;4.32;1.15;;;;;;;24.13;42.31;102002.53;4939557;29;20222;-78
2023/06/27 10:14:36;;;;;;;6.55;1.80;;;;;;;24.33;42.00;102011.06;4956968;29;20162;-79
2023/06/27 10:17:03;;;;;;;4.90;1.40;;;;;;;24.48;39.97;102012.97;4956884;29;20032;-77
2023/06/27 10:19:31;;;;;;;2.83;1.10;;;;;;;24.05;40.71;101979.56;4938848;29;20130;-78
2023/06/27 10:22:00;;;;;;;5.13;1.20;;;;;;;24.12;42.91;102003.50;4939446;29;20031;-77
2023/06/27 10:24:27;;;;;;;2.58;1.00;;;;;;;24.40;42.45;102012.94;4956285;29;20504;-77
2023/06/27 10:26:56;;;;;;;6.13;1.45;;;;;;;24.39;40.92;101997.25;4956754;29;20066;-77
2023/06/27 10:29:23;;;;;;;5.05;1.20;;;;;;;24.68;41.36;102012.69;4956703;29;20099;-77
2023/06/27 10:31:50;;;;;;;3.78;1.25;;;;;;;24.66;40.95;102020.78;4955329;28;20086;-77
2023/06/27 10:34:24;;;;;;;4.03;1.02;;;;;;;24.27;40.44;101989.56;4956248;29;20382;-77
2023/06/27 10:36:56;;;;;;;3.97;0.93;;;;;;;24.20;40.06;102009.66;4956321;29;20497;-76
2023/06/27 10:39:58;;;;;;;4.32;0.90;;;;;;;24.09;41.93;101982.69;4956156;29;20031;-77
2023/06/27 10:42:23;;;;;;;5.43;1.30;;;;;;;24.40;41.73;102001.53;4939383;29;20039;-77
2023/06/27 10:44:54;;;;;;;5.47;1.30;;;;;;;24.70;41.37;102003.63;4956317;29;20035;-76
2023/06/27 10:47:23;;;;;;;4.38;1.13;;;;;;;24.88;38.35;102007.00;4938983;29;20089;-76
2023/06/27 10:49:52;;;;;;;3.75;1.23;;;;;;;24.91;39.66;101986.50;4956265;29;20031;-78
2023/06/27 10:52:21;;;;;;;4.05;1.27;;;;;;;24.94;39.59;101999.38;4956149;29;20062;-78
2023/06/27 10:55:21;;;;;;;6.65;1.45;;;;;;;24.82;40.68;101997.06;4955201;28;20031;-81
2023/06/27 10:57:56;;;;;;;4.00;1.23;;;;;;;24.72;39.73;102003.47;4956828;29;20382;-81
2023/06/27 11:00:29;;;;;;;4.68;0.98;;;;;;;24.70;39.95;101998.34;4955925;29;20065;-82
2023/06/27 11:03:01;;;;;;;4.50;1.10;;;;;;;24.61;37.74;101996.66;4938651;29;20662;-81
2023/06/27 11:05:43;;;;;;;3.33;1.30;;;;;;;24.29;39.69;101976.22;4955830;29;20398;-80
2023/06/27 11:08:11;;;;;;;5.43;1.48;;;;;;;24.30;39.79;101991.06;4955971;29;20026;-81
2023/06/27 11:10:47;;;;;;;3.88;1.23;;;;;;;24.41;40.60;101993.47;4938748;29;20504;-81
2023/06/27 11:13:24;;;;;;;5.25;1.67;;;;;;;24.13;40.53;101979.59;4955820;29;20469;-80
2023/06/27 11:15:53;;;;;;;5.70;1.40;;;;;;;24.15;41.78;101996.09;4955825;29;20031;-82
2023/06/27 11:18:20;;;;;;;6.00;1.58;;;;;;;23.92;42.22;101984.44;4955653;29;20054;-81
2023/06/27 11:20:46;;;;;;;7.55;1.67;;;;;;;23.98;42.36;101960.88;4938331;29;20094;-80
2023/06/27 11:23:13;;;;;;;5.65;1.50;;;;;;;23.98;41.84;101957.41;4955562;29;20027;-83